Aviation Digital Data Service (ADDS)

Output produced by METARs form (1531 UTC 20 May 2018)
found at http://aviationweather.gov/adds/metars/
 
KSHV 201456Z 20008KT 10SM SCT022 BKN280 28/22 A3005 RMK AO2 SLP172 T02830222 53008 $